createdAt,value
2022-12-04T00:01:28.152Z,46.88
2022-12-04T00:03:59.150Z,43.00
2022-12-04T00:06:27.900Z,46.60
2022-12-04T00:08:55.998Z,39.33
2022-12-04T00:13:52.596Z,42.95
2022-12-04T00:16:23.558Z,44.90
2022-12-04T00:18:52.152Z,44.38
2022-12-04T00:21:21.409Z,40.28
2022-12-04T00:23:49.806Z,38.80
2022-12-04T00:26:23.216Z,42.42
2022-12-04T00:28:51.943Z,47.95
2022-12-04T00:31:23.058Z,41.95
2022-12-04T00:33:50.670Z,42.28
2022-12-04T00:36:20.478Z,43.28
2022-12-04T00:38:48.359Z,48.75
2022-12-04T00:41:19.617Z,48.40
2022-12-04T00:43:47.311Z,42.45
2022-12-04T00:46:15.196Z,51.00
2022-12-04T00:48:43.514Z,42.22
2022-12-04T00:53:43.460Z,43.20
2022-12-04T00:56:14.833Z,40.42
2022-12-04T00:58:42.569Z,41.95
2022-12-04T01:01:13.939Z,40.45
2022-12-04T01:03:42.078Z,43.88
2022-12-04T01:08:45.519Z,43.85
2022-12-04T01:11:13.044Z,43.75
2022-12-04T01:13:40.606Z,46.15
2022-12-04T01:16:08.220Z,46.83
2022-12-04T01:18:35.822Z,38.53
2022-12-04T01:21:03.393Z,48.72
2022-12-04T01:23:30.942Z,46.22
2022-12-04T01:25:59.487Z,45.17
2022-12-04T01:28:27.315Z,42.58
2022-12-04T01:31:04.573Z,44.33
2022-12-04T01:33:34.108Z,46.53
2022-12-04T01:36:03.281Z,47.55
2022-12-04T01:38:31.093Z,48.75
2022-12-04T01:40:58.987Z,41.83
2022-12-04T01:43:28.944Z,43.85
2022-12-04T01:45:58.290Z,45.67
2022-12-04T01:48:31.129Z,42.20
2022-12-04T01:51:04.929Z,41.78
2022-12-04T01:53:35.144Z,47.70
2022-12-04T01:56:04.268Z,47.38
2022-12-04T01:58:36.270Z,44.67
2022-12-04T02:01:09.099Z,41.95
2022-12-04T02:03:38.125Z,46.35
2022-12-04T02:06:06.680Z,49.05
2022-12-04T02:08:35.620Z,46.33
2022-12-04T02:11:26.099Z,51.65
2022-12-04T02:14:15.632Z,52.83
2022-12-04T02:16:55.879Z,47.85
2022-12-04T02:19:44.982Z,49.40
2022-12-04T02:22:45.213Z,45.13
2022-12-04T02:25:27.767Z,47.72
2022-12-04T02:27:59.934Z,48.35
2022-12-04T02:30:30.428Z,47.10
2022-12-04T02:33:03.568Z,45.85
2022-12-04T02:35:38.292Z,46.90
2022-12-04T02:38:33.231Z,51.95
2022-12-04T02:41:44.789Z,52.85
2022-12-04T02:44:21.974Z,49.72
2022-12-04T02:46:56.006Z,48.00
2022-12-04T02:49:38.469Z,48.15
2022-12-04T02:52:12.562Z,47.90
2022-12-04T02:54:45.801Z,52.65
2022-12-04T02:57:20.486Z,52.92
2022-12-04T02:59:50.432Z,52.50
2022-12-04T03:02:25.393Z,51.78
2022-12-04T03:04:55.356Z,55.25
2022-12-04T03:07:34.263Z,54.72
2022-12-04T03:10:15.452Z,54.53
2022-12-04T03:13:02.413Z,52.80
2022-12-04T03:16:03.660Z,54.40
2022-12-04T03:18:38.073Z,50.92
2022-12-04T03:21:11.045Z,48.70
2022-12-04T03:23:47.104Z,54.08
2022-12-04T03:26:38.131Z,51.15
2022-12-04T03:29:29.918Z,52.95
2022-12-04T03:32:26.688Z,55.40
2022-12-04T03:35:02.032Z,60.20
2022-12-04T03:37:44.596Z,57.00
2022-12-04T03:40:23.905Z,61.13
2022-12-04T03:43:06.276Z,63.88
2022-12-04T03:45:42.343Z,63.28
2022-12-04T03:48:34.759Z,60.50
2022-12-04T03:51:09.014Z,56.17
2022-12-04T03:53:52.489Z,57.08
2022-12-04T03:56:27.637Z,61.15
2022-12-04T03:59:09.870Z,59.38
2022-12-04T04:01:42.271Z,64.22
2022-12-04T04:04:15.856Z,62.75
2022-12-04T04:06:49.158Z,67.88
2022-12-04T04:09:21.516Z,62.30
2022-12-04T04:12:14.140Z,66.80
2022-12-04T04:15:11.797Z,62.20
2022-12-04T04:21:01.245Z,62.63
2022-12-04T04:23:52.903Z,70.93
2022-12-04T04:26:22.464Z,66.70
2022-12-04T04:28:49.937Z,68.97
2022-12-04T04:31:36.303Z,73.32
2022-12-04T04:34:25.996Z,71.28
2022-12-04T04:37:05.108Z,72.95
2022-12-04T04:39:44.677Z,76.75
2022-12-04T04:42:22.634Z,77.05
2022-12-04T04:45:08.114Z,76.13
2022-12-04T04:47:45.334Z,84.78
2022-12-04T04:50:15.101Z,78.57
2022-12-04T04:52:47.497Z,76.95
2022-12-04T04:55:17.850Z,79.05
2022-12-04T04:57:46.009Z,74.75
2022-12-04T05:00:22.331Z,70.65
2022-12-04T05:02:50.442Z,77.80
2022-12-04T05:05:18.599Z,73.78
2022-12-04T05:07:46.112Z,75.10
2022-12-04T05:10:14.087Z,80.25
2022-12-04T05:12:41.559Z,83.68
2022-12-04T05:15:09.675Z,78.93
2022-12-04T05:17:37.164Z,73.78
2022-12-04T05:20:05.722Z,78.68
2022-12-04T05:22:35.254Z,76.00
2022-12-04T05:25:04.140Z,77.82
2022-12-04T05:27:32.497Z,76.10
2022-12-04T05:30:00.531Z,78.13
2022-12-04T05:32:29.504Z,76.53
2022-12-04T05:34:57.748Z,85.13
2022-12-04T05:37:25.725Z,82.95
2022-12-04T05:39:53.868Z,76.72
2022-12-04T05:42:22.038Z,82.72
2022-12-04T05:44:50.293Z,82.30
2022-12-04T05:47:17.897Z,86.15
2022-12-04T05:49:45.444Z,88.57
2022-12-04T05:52:13.226Z,77.57
2022-12-04T05:54:40.784Z,74.25
2022-12-04T05:57:08.776Z,73.45
2022-12-04T05:59:36.866Z,65.22
2022-12-04T06:02:04.402Z,76.63
2022-12-04T06:04:32.240Z,69.75
2022-12-04T06:06:59.726Z,69.38
2022-12-04T06:09:27.374Z,73.65
2022-12-04T06:11:58.064Z,69.47
2022-12-04T06:14:25.794Z,66.15
2022-12-04T06:16:53.405Z,63.83
2022-12-04T06:19:22.435Z,67.13
2022-12-04T06:21:52.344Z,68.90
2022-12-04T06:24:24.595Z,68.18
2022-12-04T06:27:26.351Z,66.97
2022-12-04T06:29:44.994Z,62.13
2022-12-04T06:32:16.507Z,64.78
2022-12-04T06:34:45.646Z,60.63
2022-12-04T06:37:13.160Z,61.05
2022-12-04T06:39:40.667Z,70.38
2022-12-04T06:42:08.145Z,74.25
2022-12-04T06:44:35.889Z,69.05
2022-12-04T06:47:03.455Z,64.78
2022-12-04T06:49:31.079Z,65.93
2022-12-04T06:52:00.621Z,60.03
2022-12-04T06:54:28.185Z,60.45
2022-12-04T06:56:55.811Z,63.95
2022-12-04T06:59:23.865Z,61.35
2022-12-04T07:04:18.895Z,58.42
2022-12-04T07:06:46.348Z,55.20
2022-12-04T07:09:15.929Z,58.03
2022-12-04T07:11:45.091Z,57.00
2022-12-04T07:14:14.620Z,53.28
2022-12-04T07:16:43.086Z,53.17
2022-12-04T07:19:13.565Z,53.53
2022-12-04T07:21:42.100Z,52.50
2022-12-04T07:26:40.771Z,51.90
2022-12-04T07:29:08.489Z,58.83
2022-12-04T07:31:36.219Z,51.25
2022-12-04T07:34:03.859Z,55.90
2022-12-04T07:36:31.433Z,52.15
2022-12-04T07:38:58.921Z,54.38
2022-12-04T07:41:26.424Z,57.33
2022-12-04T07:43:54.416Z,53.13
2022-12-04T07:46:25.833Z,51.88
2022-12-04T07:48:56.613Z,53.97
2022-12-04T07:51:26.495Z,50.15
2022-12-04T07:53:54.751Z,59.47
2022-12-04T07:58:49.584Z,61.78
2022-12-04T08:01:20.985Z,54.65
2022-12-04T08:03:51.632Z,78.40
2022-12-04T08:06:21.766Z,70.25
2022-12-04T08:08:49.944Z,55.67
2022-12-04T08:13:46.799Z,58.17
2022-12-04T08:16:15.891Z,53.85
2022-12-04T08:18:46.835Z,49.10
2022-12-04T08:21:20.938Z,43.33
2022-12-04T08:23:50.632Z,48.72
2022-12-04T08:26:20.149Z,49.58
2022-12-04T08:28:48.120Z,50.58
2022-12-04T08:31:19.621Z,40.78
2022-12-04T08:33:48.237Z,47.17
2022-12-04T08:36:19.278Z,43.53
2022-12-04T08:38:50.991Z,38.83
2022-12-04T08:41:23.931Z,38.30
2022-12-04T08:43:54.762Z,48.72
2022-12-04T08:46:23.579Z,40.03
2022-12-04T08:48:51.531Z,34.85
2022-12-04T08:51:21.613Z,37.05
2022-12-04T08:53:52.884Z,38.20
2022-12-04T08:56:20.478Z,35.25
2022-12-04T08:58:48.257Z,35.97
2022-12-04T09:01:16.480Z,37.70
2022-12-04T09:06:16.753Z,37.65
2022-12-04T09:08:44.805Z,36.88
2022-12-04T09:11:15.885Z,35.40
2022-12-04T09:13:44.445Z,36.97
2022-12-04T09:16:18.249Z,37.95
2022-12-04T09:18:46.205Z,38.95
2022-12-04T09:21:16.107Z,37.95
2022-12-04T09:23:43.870Z,41.17
2022-12-04T09:26:22.545Z,36.38
2022-12-04T09:28:50.884Z,39.58
2022-12-04T09:31:19.927Z,34.30
2022-12-04T09:33:47.933Z,44.47
2022-12-04T09:36:18.259Z,44.78
2022-12-04T09:38:48.365Z,42.40
2022-12-04T09:41:25.089Z,45.20
2022-12-04T09:43:58.582Z,40.60
2022-12-04T09:46:32.520Z,43.25
2022-12-04T09:49:04.941Z,40.40
2022-12-04T09:51:35.135Z,42.95
2022-12-04T09:54:14.820Z,42.63
2022-12-04T09:56:47.180Z,44.53
2022-12-04T09:59:25.718Z,40.67
2022-12-04T10:02:13.048Z,45.70
2022-12-04T10:04:43.029Z,43.67
2022-12-04T10:07:16.558Z,46.88
2022-12-04T10:10:17.908Z,44.20
2022-12-04T10:13:25.428Z,45.25
2022-12-04T10:15:56.084Z,45.40
2022-12-04T10:18:30.058Z,45.72
2022-12-04T10:21:25.861Z,42.13
2022-12-04T10:24:16.189Z,48.47
2022-12-04T10:26:48.506Z,47.88
2022-12-04T10:29:30.785Z,49.40
2022-12-04T10:32:18.379Z,48.35
2022-12-04T10:34:48.408Z,44.03
2022-12-04T10:37:16.117Z,46.08
2022-12-04T10:39:55.181Z,48.17
2022-12-04T10:42:37.913Z,47.45
2022-12-04T10:45:06.940Z,40.30
2022-12-04T10:47:38.456Z,35.47
2022-12-04T10:50:19.175Z,32.75
2022-12-04T10:52:47.045Z,33.95
2022-12-04T10:55:15.453Z,31.60
2022-12-04T10:57:46.698Z,29.80
2022-12-04T11:00:33.685Z,33.03
2022-12-04T11:03:04.143Z,26.40
2022-12-04T11:05:34.737Z,29.13
2022-12-04T11:08:06.702Z,26.60
2022-12-04T11:10:40.420Z,27.33
2022-12-04T11:13:11.017Z,27.70
2022-12-04T11:15:50.314Z,25.90
2022-12-04T11:18:46.830Z,23.52
2022-12-04T11:21:17.652Z,27.40
2022-12-04T11:23:50.218Z,25.10
2022-12-04T11:26:33.782Z,29.13
2022-12-04T11:29:02.077Z,25.10
2022-12-04T11:31:31.413Z,30.38
2022-12-04T11:34:03.506Z,27.30
2022-12-04T11:36:34.823Z,26.63
2022-12-04T11:39:19.080Z,26.77
2022-12-04T11:41:46.570Z,29.63
2022-12-04T11:44:28.522Z,26.52
2022-12-04T11:47:02.395Z,25.95
2022-12-04T11:49:32.299Z,28.50
2022-12-04T11:52:37.373Z,27.15
2022-12-04T11:55:22.423Z,30.58
2022-12-04T11:57:57.383Z,31.45
2022-12-04T12:00:26.413Z,29.67
2022-12-04T12:03:16.853Z,31.58
2022-12-04T12:05:59.432Z,29.02
2022-12-04T12:08:37.243Z,31.08
2022-12-04T12:11:16.956Z,27.65
2022-12-04T12:14:08.716Z,28.92
2022-12-04T12:19:24.680Z,27.98
2022-12-04T12:22:08.517Z,27.63
2022-12-04T12:24:54.938Z,24.67
2022-12-04T12:28:05.218Z,26.33
2022-12-04T12:30:52.906Z,29.92
2022-12-04T12:33:25.007Z,27.92
2022-12-04T12:36:12.818Z,27.65
2022-12-04T12:39:15.298Z,30.17
2022-12-04T12:41:49.515Z,27.92
2022-12-04T12:44:34.814Z,27.60
2022-12-04T12:47:16.443Z,31.58
2022-12-04T12:50:04.964Z,29.63
2022-12-04T12:52:57.858Z,27.38
2022-12-04T12:55:42.085Z,31.20
2022-12-04T12:58:09.487Z,31.17
2022-12-04T13:00:54.623Z,29.33
2022-12-04T13:03:49.274Z,30.38
2022-12-04T13:06:22.256Z,33.70
2022-12-04T13:09:19.414Z,29.65
2022-12-04T13:11:49.724Z,33.38
2022-12-04T13:14:22.894Z,32.05
2022-12-04T13:17:11.312Z,34.28
2022-12-04T13:19:46.210Z,32.08
2022-12-04T13:22:18.369Z,36.75
2022-12-04T13:25:07.637Z,27.15
2022-12-04T13:27:48.239Z,30.30
2022-12-04T13:30:40.566Z,27.02
2022-12-04T13:33:47.070Z,30.10
2022-12-04T13:36:49.784Z,28.05
2022-12-04T13:39:27.194Z,27.10
2022-12-04T13:42:00.640Z,25.83
2022-12-04T13:44:29.766Z,25.90
2022-12-04T13:47:04.421Z,23.45
2022-12-04T13:49:37.854Z,25.75
2022-12-04T13:52:22.148Z,24.27
2022-12-04T13:54:59.876Z,23.35
2022-12-04T13:57:28.312Z,26.98
2022-12-04T14:00:07.299Z,21.85
2022-12-04T14:02:50.583Z,23.17
2022-12-04T14:05:27.709Z,27.02
2022-12-04T14:08:07.149Z,27.13
2022-12-04T14:10:37.993Z,27.38
2022-12-04T14:13:28.110Z,27.55
2022-12-04T14:16:16.705Z,25.20
2022-12-04T14:18:56.389Z,25.95
2022-12-04T14:21:24.730Z,25.25
2022-12-04T14:27:09.927Z,26.63
2022-12-04T14:29:30.927Z,28.45
2022-12-04T14:32:01.054Z,26.23
2022-12-04T14:34:33.126Z,27.25
2022-12-04T14:37:02.087Z,31.23
2022-12-04T14:39:48.314Z,28.83
2022-12-04T14:42:26.600Z,30.48
2022-12-04T14:45:02.424Z,27.05
2022-12-04T14:47:43.662Z,32.42
2022-12-04T14:50:27.325Z,35.53
2022-12-04T14:53:05.071Z,33.22
2022-12-04T14:56:07.772Z,30.75
2022-12-04T14:58:38.528Z,30.52
2022-12-04T15:01:29.619Z,27.52
2022-12-04T15:04:01.255Z,30.42
2022-12-04T15:06:31.555Z,28.33
2022-12-04T15:09:22.649Z,26.35
2022-12-04T15:12:14.179Z,30.10
2022-12-04T15:14:47.466Z,25.63
2022-12-04T15:17:18.010Z,23.77
2022-12-04T15:19:45.898Z,24.00
2022-12-04T15:22:28.414Z,25.55
2022-12-04T15:24:56.473Z,22.80
2022-12-04T15:27:32.029Z,23.95
2022-12-04T15:30:02.297Z,24.48
2022-12-04T15:32:31.661Z,24.42
2022-12-04T15:35:06.812Z,26.27
2022-12-04T15:37:34.460Z,21.63
2022-12-04T15:40:06.941Z,28.63
2022-12-04T15:42:34.466Z,23.50
2022-12-04T15:45:22.513Z,23.77
2022-12-04T15:47:53.729Z,24.92
2022-12-04T15:50:27.040Z,23.25
2022-12-04T15:53:15.573Z,23.13
2022-12-04T15:56:09.340Z,20.80
2022-12-04T15:58:39.470Z,25.75
2022-12-04T16:01:13.062Z,23.08
2022-12-04T16:03:43.686Z,22.80
2022-12-04T16:06:16.680Z,24.80
2022-12-04T16:08:46.291Z,20.80
2022-12-04T16:11:22.779Z,22.50
2022-12-04T16:14:04.224Z,20.48
2022-12-04T16:16:31.955Z,23.63
2022-12-04T16:19:02.251Z,26.48
2022-12-04T16:21:31.476Z,27.00
2022-12-04T16:24:03.777Z,24.80
2022-12-04T16:26:31.817Z,26.92
2022-12-04T16:28:59.662Z,30.23
2022-12-04T16:31:27.338Z,30.02
2022-12-04T16:33:54.933Z,32.50
2022-12-04T16:36:22.340Z,32.55
2022-12-04T16:38:50.457Z,32.60
2022-12-04T16:41:19.396Z,31.85
2022-12-04T16:43:54.953Z,31.58
2022-12-04T16:46:25.048Z,31.67
2022-12-04T16:48:53.111Z,33.22
2022-12-04T16:51:25.988Z,38.83
2022-12-04T16:53:54.712Z,29.17
2022-12-04T16:56:22.674Z,31.20
2022-12-04T16:58:50.250Z,36.10
2022-12-04T17:01:25.372Z,34.20
2022-12-04T17:03:53.271Z,38.35
2022-12-04T17:06:20.887Z,31.25
2022-12-04T17:08:48.385Z,29.27
2022-12-04T17:11:17.708Z,30.65
2022-12-04T17:13:45.735Z,29.17
2022-12-04T17:16:15.189Z,29.13
2022-12-04T17:18:43.921Z,33.20
2022-12-04T17:21:13.183Z,34.17
2022-12-04T17:23:41.147Z,30.75
2022-12-04T17:26:11.263Z,29.92
2022-12-04T17:28:39.539Z,29.92
2022-12-04T17:31:25.174Z,30.67
2022-12-04T17:33:53.424Z,31.10
2022-12-04T17:38:56.744Z,34.28
2022-12-04T17:41:24.521Z,39.90
2022-12-04T17:43:55.079Z,33.70
2022-12-04T17:46:24.470Z,37.17
2022-12-04T17:48:55.342Z,34.40
2022-12-04T17:51:24.725Z,32.20
2022-12-04T17:53:52.457Z,32.72
2022-12-04T17:56:22.840Z,29.58
2022-12-04T17:58:51.560Z,36.70
2022-12-04T18:01:21.710Z,32.13
2022-12-04T18:04:03.395Z,32.13
2022-12-04T18:06:34.074Z,36.10
2022-12-04T18:09:02.415Z,35.47
2022-12-04T18:11:31.585Z,39.63
2022-12-04T18:14:04.834Z,39.60
2022-12-04T18:16:36.916Z,44.38
2022-12-04T18:19:04.506Z,34.53
2022-12-04T18:21:33.176Z,39.45
2022-12-04T18:24:03.532Z,42.88
2022-12-04T18:26:36.588Z,36.35
2022-12-04T18:29:04.999Z,36.42
2022-12-04T18:31:33.778Z,35.58
2022-12-04T18:34:01.697Z,37.35
2022-12-04T18:36:30.797Z,38.92
2022-12-04T18:39:01.192Z,35.50
2022-12-04T18:41:29.752Z,38.28
2022-12-04T18:43:57.694Z,35.35
2022-12-04T18:46:25.756Z,37.08
2022-12-04T18:48:55.310Z,33.08
2022-12-04T18:51:26.735Z,32.42
2022-12-04T18:53:58.553Z,34.60
2022-12-04T18:56:26.873Z,34.75
2022-12-04T18:58:59.639Z,35.50
2022-12-04T19:01:28.161Z,38.00
2022-12-04T19:03:58.299Z,33.22
2022-12-04T19:06:38.015Z,34.72
2022-12-04T19:09:10.207Z,39.97
2022-12-04T19:11:39.383Z,31.40
2022-12-04T19:14:16.049Z,39.58
2022-12-04T19:16:48.764Z,38.60
2022-12-04T19:19:16.912Z,40.28
2022-12-04T19:24:12.303Z,45.95
2022-12-04T19:26:40.185Z,43.00
2022-12-04T19:29:08.388Z,42.47
2022-12-04T19:34:06.309Z,35.95
2022-12-04T19:36:35.167Z,44.72
2022-12-04T19:39:04.485Z,41.63
2022-12-04T19:41:34.789Z,36.92
2022-12-04T19:44:14.658Z,33.92
2022-12-04T19:46:50.338Z,35.83
2022-12-04T19:49:20.852Z,32.47
2022-12-04T19:51:49.370Z,37.45
2022-12-04T19:54:17.801Z,35.58
2022-12-04T19:56:49.098Z,38.38
2022-12-04T19:59:17.606Z,37.15
2022-12-04T20:01:45.086Z,39.17
2022-12-04T20:04:13.091Z,39.72
2022-12-04T20:06:44.325Z,40.00
2022-12-04T20:09:14.753Z,39.17
2022-12-04T20:11:42.365Z,37.13
2022-12-04T20:14:10.315Z,35.17
2022-12-04T20:16:38.606Z,33.45
2022-12-04T20:19:13.071Z,32.78
2022-12-04T20:21:40.614Z,33.63
2022-12-04T20:24:08.475Z,34.33
2022-12-04T20:26:38.574Z,30.13
2022-12-04T20:29:08.699Z,32.03
2022-12-04T20:31:38.785Z,32.45
2022-12-04T20:34:11.069Z,33.47
2022-12-04T20:36:41.254Z,35.17
2022-12-04T20:39:09.643Z,35.22
2022-12-04T20:41:37.788Z,36.78
2022-12-04T20:46:36.522Z,35.88
2022-12-04T20:49:17.277Z,40.75
2022-12-04T20:51:48.073Z,33.55
2022-12-04T20:54:18.580Z,36.38
2022-12-04T20:56:48.689Z,34.35
2022-12-04T20:59:18.314Z,36.65
2022-12-04T21:01:46.927Z,38.85
2022-12-04T21:04:18.991Z,39.45
2022-12-04T21:06:47.106Z,37.58
2022-12-04T21:11:55.313Z,37.80
2022-12-04T21:14:47.338Z,36.58
2022-12-04T21:17:18.887Z,47.30
2022-12-04T21:19:49.561Z,76.43
2022-12-04T21:22:18.370Z,40.65
2022-12-04T21:24:45.922Z,38.83
2022-12-04T21:27:20.403Z,44.30
2022-12-04T21:29:49.594Z,43.08
2022-12-04T21:32:18.824Z,43.92
2022-12-04T21:34:46.358Z,44.67
2022-12-04T21:37:14.009Z,42.30
2022-12-04T21:39:43.187Z,44.45
2022-12-04T21:42:29.439Z,41.03
2022-12-04T21:44:58.251Z,39.63
2022-12-04T21:47:26.834Z,45.20
2022-12-04T21:49:54.729Z,46.20
2022-12-04T21:52:22.390Z,43.15
2022-12-04T21:54:54.225Z,45.35
2022-12-04T21:57:22.376Z,45.65
2022-12-04T22:02:21.253Z,46.22
2022-12-04T22:04:49.002Z,46.33
2022-12-04T22:07:18.850Z,49.92
2022-12-04T22:09:46.354Z,45.03
2022-12-04T22:12:41.366Z,45.50
2022-12-04T22:15:01.325Z,46.88
2022-12-04T22:17:29.816Z,45.67
2022-12-04T22:19:57.515Z,46.58
2022-12-04T22:22:25.243Z,50.83
2022-12-04T22:24:52.696Z,50.95
2022-12-04T22:27:20.153Z,55.40
2022-12-04T22:29:50.954Z,44.80
2022-12-04T22:32:19.725Z,45.75
2022-12-04T22:34:50.287Z,43.38
2022-12-04T22:37:18.268Z,46.08
2022-12-04T22:39:45.830Z,49.97
2022-12-04T22:42:13.371Z,47.97
2022-12-04T22:44:40.807Z,51.72
2022-12-04T22:47:08.341Z,50.85
2022-12-04T22:49:35.890Z,55.47
2022-12-04T22:52:03.606Z,50.15
2022-12-04T22:54:31.069Z,51.58
2022-12-04T22:56:58.534Z,48.55
2022-12-04T22:59:26.155Z,54.05
2022-12-04T23:01:53.596Z,51.25
2022-12-04T23:04:21.072Z,47.78
2022-12-04T23:06:48.502Z,50.05
2022-12-04T23:09:17.591Z,51.80
2022-12-04T23:11:45.419Z,53.85
2022-12-04T23:14:14.699Z,53.00
2022-12-04T23:16:42.984Z,56.20
2022-12-04T23:19:14.038Z,54.28
2022-12-04T23:21:41.884Z,58.40
2022-12-04T23:24:10.429Z,63.70
2022-12-04T23:26:41.736Z,60.92
2022-12-04T23:29:29.741Z,62.42
2022-12-04T23:31:56.655Z,64.35
2022-12-04T23:34:24.458Z,58.95
2022-12-04T23:36:52.077Z,66.55
2022-12-04T23:39:19.503Z,65.50
2022-12-04T23:41:47.015Z,66.78
2022-12-04T23:44:14.590Z,66.63
2022-12-04T23:46:42.328Z,67.00
2022-12-04T23:49:09.854Z,69.03
2022-12-04T23:51:37.381Z,71.47
2022-12-04T23:54:04.866Z,67.40
2022-12-04T23:56:32.712Z,73.53
2022-12-04T23:59:00.146Z,70.20
